Time;durP1;ratioP1;P1;durP2;ratioP2;P2;SDS_P1;SDS_P2;PMS_P1;PMS_P2;Temp;Humidity;BMP_temperature;BMP_pressure;BME280_temperature;BME280_humidity;BME280_pressure;Samples;Min_cycle;Max_cycle;Signal;HPM_P1;HPM_P2
2023/10/07 00:02:56;;;;;;;8.70;2.88;;;16.70;99.90;;;;;;6332338;22;45107;-55
2023/10/07 00:05:31;;;;;;;9.45;2.83;;;16.40;99.90;;;;;;6335225;22;46869;-55
2023/10/07 00:08:00;;;;;;;11.98;2.92;;;16.60;99.90;;;;;;6337519;22;45094;-55
2023/10/07 00:10:29;;;;;;;9.30;2.92;;;16.40;99.90;;;;;;6332542;22;45054;-55
2023/10/07 00:12:57;;;;;;;8.82;3.30;;;16.10;99.90;;;;;;6337426;22;45053;-55
2023/10/07 00:15:28;;;;;;;9.40;3.08;;;16.10;99.90;;;;;;6335307;22;47112;-55
2023/10/07 00:17:57;;;;;;;11.60;2.95;;;16.00;99.90;;;;;;6337370;22;45078;-55
2023/10/07 00:20:24;;;;;;;10.52;3.35;;;15.90;99.90;;;;;;6336702;22;45157;-54
2023/10/07 00:22:54;;;;;;;13.10;2.92;;;15.90;99.90;;;;;;6335800;22;45223;-55
2023/10/07 00:25:22;;;;;;;8.85;3.20;;;16.00;99.90;;;;;;6337078;22;47341;-55
2023/10/07 00:27:49;;;;;;;11.25;3.10;;;16.10;99.90;;;;;;6335143;22;45103;-55
2023/10/07 00:30:20;;;;;;;7.93;3.03;;;16.00;99.90;;;;;;6335986;22;45137;-55
2023/10/07 00:32:50;;;;;;;9.27;3.03;;;16.10;99.90;;;;;;6336088;22;45140;-55
2023/10/07 00:35:19;;;;;;;7.97;2.90;;;16.20;99.90;;;;;;6338096;22;48188;-54
2023/10/07 00:37:46;;;;;;;7.78;2.85;;;16.30;99.90;;;;;;6335943;22;45200;-55
2023/10/07 00:40:30;;;;;;;9.10;2.50;;;16.20;99.90;;;;;;6338000;22;45071;-54
2023/10/07 00:42:57;;;;;;;7.38;2.83;;;16.30;99.90;;;;;;6337187;22;45228;-55
2023/10/07 00:45:25;;;;;;;5.57;2.28;;;16.10;99.90;;;;;;6337540;22;47410;-54
2023/10/07 00:48:00;;;;;;;8.30;2.90;;;16.20;99.90;;;;;;6337853;22;45234;-54
2023/10/07 00:50:27;;;;;;;9.20;2.80;;;16.20;99.90;;;;;;6339041;22;45153;-53
2023/10/07 00:52:58;;;;;;;8.93;3.20;;;16.20;99.90;;;;;;6339466;22;45083;-54
2023/10/07 00:55:29;;;;;;;6.40;2.90;;;16.10;99.90;;;;;;6337006;22;45337;-55
2023/10/07 00:58:14;;;;;;;6.30;2.30;;;16.20;99.90;;;;;;6337855;22;45577;-55
2023/10/07 01:00:46;;;;;;;6.95;2.67;;;16.40;99.90;;;;;;6338741;22;45176;-55
2023/10/07 01:03:23;;;;;;;9.45;2.45;;;16.60;99.90;;;;;;6338125;22;45237;-54
2023/10/07 01:06:10;;;;;;;12.85;2.90;;;16.40;99.90;;;;;;6336868;22;45384;-54
2023/10/07 01:08:41;;;;;;;8.20;2.90;;;16.70;99.90;;;;;;6336746;22;45111;-55
2023/10/07 01:11:19;;;;;;;11.57;3.25;;;16.20;99.90;;;;;;6337709;22;44652;-55
2023/10/07 01:13:50;;;;;;;9.63;3.42;;;16.10;99.90;;;;;;6337669;22;45057;-55
2023/10/07 01:16:27;;;;;;;6.85;2.95;;;16.00;99.90;;;;;;6336665;22;46298;-55
2023/10/07 01:19:04;;;;;;;11.27;3.28;;;16.00;99.90;;;;;;6338075;22;44991;-55
2023/10/07 01:21:39;;;;;;;9.77;3.25;;;16.00;99.90;;;;;;6338186;22;44823;-54
2023/10/07 01:24:13;;;;;;;9.98;3.20;;;16.20;99.90;;;;;;6338185;22;45202;-54
2023/10/07 01:26:44;;;;;;;8.55;3.00;;;16.50;99.90;;;;;;6337668;22;45194;-55
2023/10/07 01:29:15;;;;;;;11.20;3.00;;;16.20;99.90;;;;;;6339171;22;45104;-55
2023/10/07 01:31:59;;;;;;;9.13;2.58;;;15.90;99.90;;;;;;6338807;22;45149;-55
2023/10/07 01:34:29;;;;;;;10.27;2.75;;;15.90;99.90;;;;;;6338564;22;44617;-54
2023/10/07 01:36:55;;;;;;;7.90;3.13;;;15.70;99.90;;;;;;6336324;22;47250;-54
2023/10/07 01:39:24;;;;;;;9.45;3.58;;;16.00;99.90;;;;;;6338522;22;44614;-54
2023/10/07 01:41:51;;;;;;;8.82;3.10;;;16.00;99.90;;;;;;6337841;22;45031;-55
2023/10/07 01:44:24;;;;;;;10.43;3.50;;;15.90;99.90;;;;;;6338287;22;45109;-55
2023/10/07 01:46:55;;;;;;;14.90;3.42;;;15.60;99.90;;;;;;6337701;22;45225;-54
2023/10/07 01:49:22;;;;;;;8.63;3.33;;;15.70;99.90;;;;;;6338243;22;45059;-54
2023/10/07 01:51:52;;;;;;;11.10;3.05;;;15.90;99.90;;;;;;6338026;22;45126;-54
2023/10/07 01:54:19;;;;;;;8.68;3.33;;;15.80;99.90;;;;;;6338351;22;44821;-54
2023/10/07 01:56:52;;;;;;;7.72;3.42;;;15.60;99.90;;;;;;6336939;22;46238;-54
2023/10/07 01:59:19;;;;;;;12.10;3.90;;;15.80;99.90;;;;;;6338553;22;45089;-55
2023/10/07 02:01:58;;;;;;;10.27;3.67;;;15.90;99.90;;;;;;6338072;22;45178;-54
2023/10/07 02:04:26;;;;;;;8.77;2.95;;;16.10;99.90;;;;;;6338051;22;45086;-55
2023/10/07 02:06:54;;;;;;;14.57;3.50;;;16.20;99.90;;;;;;6337131;22;47103;-54
2023/10/07 02:09:24;;;;;;;10.68;3.40;;;16.20;99.90;;;;;;6337968;22;45109;-54
2023/10/07 02:11:54;;;;;;;13.02;3.60;;;16.30;99.90;;;;;;6338166;22;45128;-54
2023/10/07 02:14:24;;;;;;;10.27;4.18;;;16.40;99.90;;;;;;6338498;22;45082;-54
2023/10/07 02:16:51;;;;;;;18.77;3.40;;;16.20;99.90;;;;;;6337020;22;45535;-54
2023/10/07 02:19:28;;;;;;;11.60;3.55;;;15.80;99.90;;;;;;6337751;22;45059;-54
2023/10/07 02:21:59;;;;;;;13.40;3.85;;;15.60;99.90;;;;;;6335108;22;45136;-54
2023/10/07 02:24:29;;;;;;;10.95;3.60;;;15.60;99.90;;;;;;6338298;22;45235;-54
2023/10/07 02:27:00;;;;;;;7.82;3.75;;;15.60;99.90;;;;;;6334645;22;46482;-54
2023/10/07 02:29:28;;;;;;;8.68;4.07;;;15.60;99.90;;;;;;6339226;22;45040;-54
2023/10/07 02:32:06;;;;;;;9.00;4.18;;;15.60;99.90;;;;;;6338892;22;45059;-54
2023/10/07 02:34:34;;;;;;;13.35;3.47;;;15.60;99.90;;;;;;6338386;22;45069;-54
2023/10/07 02:37:12;;;;;;;12.25;4.03;;;15.60;99.90;;;;;;6334703;22;47432;-54
2023/10/07 02:39:45;;;;;;;8.73;3.35;;;15.70;99.90;;;;;;6338761;22;45090;-54
2023/10/07 02:42:20;;;;;;;14.60;3.88;;;15.60;99.90;;;;;;6334449;22;45098;-54
2023/10/07 02:44:48;;;;;;;12.15;4.05;;;15.60;99.90;;;;;;6339651;22;45098;-54
2023/10/07 02:47:17;;;;;;;12.68;3.70;;;15.90;99.90;;;;;;6338187;22;47257;-54
2023/10/07 02:49:49;;;;;;;9.60;3.40;;;15.90;99.90;;;;;;6337073;22;45067;-54
2023/10/07 02:52:17;;;;;;;11.45;4.97;;;16.20;99.90;;;;;;6339335;22;45136;-54
2023/10/07 02:54:43;;;;;;;11.23;3.92;;;16.00;99.90;;;;;;6339301;22;45052;-54
2023/10/07 02:57:23;;;;;;;12.68;3.88;;;15.90;99.90;;;;;;6335830;22;45139;-54
2023/10/07 02:59:51;;;;;;;13.60;3.97;;;15.90;99.90;;;;;;6339344;22;45196;-54
2023/10/07 03:02:36;;;;;;;14.52;4.03;;;15.80;99.90;;;;;;6339249;22;45012;-54
2023/10/07 03:05:14;;;;;;;14.85;4.68;;;15.80;99.90;;;;;;6339247;22;45056;-54
2023/10/07 03:07:49;;;;;;;14.38;4.55;;;15.90;99.90;;;;;;6339013;22;46324;-54
2023/10/07 03:10:29;;;;;;;9.90;3.70;;;16.10;99.90;;;;;;6339764;22;45105;-54
2023/10/07 03:12:57;;;;;;;10.35;4.40;;;16.10;99.90;;;;;;6339094;22;45152;-54
2023/10/07 03:15:40;;;;;;;13.45;4.28;;;16.10;99.90;;;;;;6338874;22;44621;-54
2023/10/07 03:18:20;;;;;;;14.43;3.95;;;15.90;99.90;;;;;;6338406;22;45139;-54
2023/10/07 03:20:48;;;;;;;8.43;3.55;;;16.00;99.90;;;;;;6338768;22;45134;-54
2023/10/07 03:23:17;;;;;;;11.93;4.13;;;16.50;99.90;;;;;;6338785;22;45062;-54
2023/10/07 03:26:05;;;;;;;14.02;4.20;;;16.80;99.90;;;;;;6338846;22;45344;-54
2023/10/07 03:28:36;;;;;;;14.35;4.85;;;16.50;99.90;;;;;;6338782;22;46238;-54
2023/10/07 03:31:10;;;;;;;9.98;4.30;;;16.10;99.90;;;;;;6338814;22;45089;-54
2023/10/07 03:33:45;;;;;;;10.93;4.60;;;16.20;99.90;;;;;;6338987;22;45193;-54
2023/10/07 03:36:30;;;;;;;12.93;4.70;;;16.20;99.90;;;;;;6338833;22;45168;-54
2023/10/07 03:39:11;;;;;;;14.57;4.70;;;16.50;99.90;;;;;;6339017;22;48243;-54
2023/10/07 03:41:41;;;;;;;9.65;4.43;;;16.50;99.90;;;;;;6337696;22;45133;-54
2023/10/07 03:44:08;;;;;;;13.07;5.15;;;16.10;99.90;;;;;;6339439;22;44616;-54
2023/10/07 03:46:38;;;;;;;16.52;4.50;;;16.30;99.90;;;;;;6338527;22;45000;-54
2023/10/07 03:49:06;;;;;;;8.13;4.18;;;16.50;99.90;;;;;;6339356;22;47584;-54
2023/10/07 03:51:35;;;;;;;15.70;5.22;;;16.70;99.90;;;;;;6336573;22;45046;-54
2023/10/07 03:54:04;;;;;;;11.85;4.43;;;16.40;99.90;;;;;;6339454;22;45153;-54
2023/10/07 03:56:31;;;;;;;13.93;4.68;;;16.70;99.90;;;;;;6338308;22;44653;-54
2023/10/07 03:58:59;;;;;;;7.97;4.07;;;16.60;99.90;;;;;;6338985;22;47525;-54
2023/10/07 04:01:27;;;;;;;10.38;3.67;;;16.50;99.90;;;;;;6338740;22;45081;-54
2023/10/07 04:03:59;;;;;;;12.43;4.50;;;16.50;99.90;;;;;;6339066;22;45184;-54
2023/10/07 04:06:30;;;;;;;8.57;3.85;;;16.80;99.90;;;;;;6338390;22;45237;-54
2023/10/07 04:09:05;;;;;;;14.70;5.00;;;16.80;99.90;;;;;;6339055;22;47727;-54
2023/10/07 04:11:33;;;;;;;11.43;4.22;;;16.70;99.90;;;;;;6338607;22;45034;-54
2023/10/07 04:14:07;;;;;;;11.77;4.03;;;16.80;99.90;;;;;;6339144;22;45118;-54
2023/10/07 04:16:34;;;;;;;11.48;4.18;;;16.30;99.90;;;;;;6338581;22;44712;-54
2023/10/07 04:19:29;;;;;;;14.63;4.10;;;16.20;99.90;;;;;;6337816;22;46509;-54
2023/10/07 04:21:55;;;;;;;17.85;4.60;;;16.40;99.90;;;;;;6338725;22;45003;-54
2023/10/07 04:24:23;;;;;;;9.25;3.85;;;16.20;99.90;;;;;;6338955;22;45134;-54
2023/10/07 04:26:54;;;;;;;10.68;3.72;;;16.30;99.90;;;;;;6338396;22;45034;-54
2023/10/07 04:29:21;;;;;;;9.43;3.75;;;16.50;99.90;;;;;;6339079;22;45023;-54
2023/10/07 04:31:51;;;;;;;10.93;3.15;;;16.90;99.90;;;;;;6338545;22;45098;-54
2023/10/07 04:34:21;;;;;;;18.85;4.13;;;16.80;99.90;;;;;;6338600;22;45054;-54
2023/10/07 04:37:11;;;;;;;7.28;3.55;;;16.80;99.90;;;;;;6338148;22;45479;-54
2023/10/07 04:39:39;;;;;;;12.10;4.22;;;16.70;99.90;;;;;;6337328;22;47394;-54
2023/10/07 04:42:05;;;;;;;8.65;3.90;;;16.70;99.90;;;;;;6336844;22;45763;-54
2023/10/07 04:47:34;;;;;;;11.50;4.25;;;16.60;99.90;;;;;;6337466;22;45140;-54
2023/10/07 04:50:07;;;;;;;6.95;3.15;;;16.60;99.90;;;;;;6337517;22;46472;-54
2023/10/07 04:52:39;;;;;;;10.93;4.20;;;16.60;99.90;;;;;;6337047;22;45081;-54
2023/10/07 04:55:11;;;;;;;9.77;4.15;;;16.90;99.90;;;;;;6338748;22;45341;-54
2023/10/07 04:57:44;;;;;;;10.20;3.88;;;17.00;99.90;;;;;;6338488;22;45061;-54
2023/10/07 05:00:27;;;;;;;10.02;4.03;;;17.20;99.90;;;;;;6338271;22;47278;-54
2023/10/07 05:02:57;;;;;;;9.52;3.65;;;17.10;99.90;;;;;;6338186;22;45178;-54
2023/10/07 05:05:25;;;;;;;8.82;3.95;;;17.10;99.90;;;;;;6338287;22;45069;-54
2023/10/07 05:07:58;;;;;;;11.65;3.92;;;17.10;99.90;;;;;;6338433;22;45023;-54
2023/10/07 05:10:27;;;;;;;10.18;3.85;;;16.90;99.90;;;;;;6337696;22;45187;-54
2023/10/07 05:12:55;;;;;;;6.43;3.50;;;16.90;99.90;;;;;;6338333;22;45301;-54
2023/10/07 05:15:24;;;;;;;12.80;4.35;;;17.00;99.90;;;;;;6338099;22;45023;-54
2023/10/07 05:17:52;;;;;;;10.43;3.30;;;16.90;99.90;;;;;;6338415;22;45253;-54
2023/10/07 05:20:27;;;;;;;10.77;3.35;;;17.10;99.90;;;;;;6337739;22;46521;-54
2023/10/07 05:22:56;;;;;;;10.15;4.07;;;17.00;99.90;;;;;;6337951;22;45065;-54
2023/10/07 05:25:23;;;;;;;8.82;3.60;;;16.80;99.90;;;;;;6338361;22;45194;-54
2023/10/07 05:27:51;;;;;;;12.80;3.35;;;17.10;99.90;;;;;;6338423;22;45119;-54
2023/10/07 05:30:18;;;;;;;6.60;3.10;;;17.10;99.90;;;;;;6337869;22;47413;-55
2023/10/07 05:32:46;;;;;;;13.73;3.25;;;17.20;99.90;;;;;;6338319;22;45037;-54
2023/10/07 05:35:15;;;;;;;10.38;3.40;;;17.50;99.90;;;;;;6338459;22;45096;-54
2023/10/07 05:37:44;;;;;;;7.53;3.13;;;17.50;99.90;;;;;;6338211;22;45220;-55
2023/10/07 05:40:16;;;;;;;8.65;2.83;;;17.70;99.90;;;;;;6338638;22;45054;-54
2023/10/07 05:42:43;;;;;;;7.30;3.33;;;18.00;99.90;;;;;;6334415;22;45259;-54
2023/10/07 05:45:11;;;;;;;7.75;3.25;;;18.20;99.90;;;;;;6338162;22;45208;-55
2023/10/07 05:47:37;;;;;;;11.10;3.58;;;18.10;99.90;;;;;;6337073;22;44993;-54
2023/10/07 05:50:05;;;;;;;5.47;2.55;;;18.10;99.90;;;;;;6336474;22;45160;-55
2023/10/07 05:52:35;;;;;;;10.20;3.03;;;18.30;99.90;;;;;;6333979;22;45086;-55
2023/10/07 05:55:03;;;;;;;7.78;3.50;;;18.50;99.90;;;;;;6334727;22;45085;-54
2023/10/07 05:57:31;;;;;;;8.80;3.28;;;17.80;99.90;;;;;;6337573;22;45173;-54
2023/10/07 05:59:58;;;;;;;9.38;3.05;;;17.60;99.90;;;;;;6336567;22;45271;-54
2023/10/07 06:02:26;;;;;;;6.32;2.75;;;17.50;99.90;;;;;;6338189;22;45903;-54
2023/10/07 06:04:52;;;;;;;8.20;3.40;;;17.60;99.90;;;;;;6339467;22;45079;-54
2023/10/07 06:07:21;;;;;;;9.27;3.47;;;17.50;99.90;;;;;;6338299;22;45262;-54
2023/10/07 06:09:48;;;;;;;9.38;4.28;;;17.10;99.90;;;;;;6339294;22;46269;-54
2023/10/07 06:12:15;;;;;;;14.20;4.25;;;16.70;99.90;;;;;;6339589;22;45818;-55
2023/10/07 06:14:44;;;;;;;13.23;4.00;;;16.60;99.90;;;;;;6339534;22;45027;-54
2023/10/07 06:17:11;;;;;;;11.20;3.65;;;16.70;99.90;;;;;;6336485;22;45223;-54
2023/10/07 06:19:40;;;;;;;11.25;3.20;;;16.70;99.90;;;;;;6339351;22;46965;-54
2023/10/07 06:22:12;;;;;;;10.43;2.92;;;16.50;99.90;;;;;;6337903;22;45098;-54
2023/10/07 06:24:40;;;;;;;11.30;3.53;;;16.40;99.90;;;;;;6336705;22;45257;-54
2023/10/07 06:27:11;;;;;;;10.32;3.67;;;16.50;99.90;;;;;;6335340;22;45028;-53
2023/10/07 06:29:41;;;;;;;8.27;3.33;;;16.70;99.90;;;;;;6338028;22;45259;-54
2023/10/07 06:34:57;;;;;;;11.13;3.67;;;16.90;99.90;;;;;;6333467;22;45101;-54
2023/10/07 06:37:29;;;;;;;7.13;3.38;;;16.60;99.90;;;;;;6338953;22;44838;-55
2023/10/07 06:40:00;;;;;;;8.77;3.28;;;16.70;99.90;;;;;;6336051;22;45212;-55
2023/10/07 06:42:27;;;;;;;7.95;3.10;;;16.90;99.90;;;;;;6335484;22;45143;-54
2023/10/07 06:44:56;;;;;;;8.25;3.38;;;16.80;99.90;;;;;;6335769;22;45151;-55
2023/10/07 06:47:29;;;;;;;11.10;3.70;;;17.00;99.90;;;;;;6338890;22;44833;-55
2023/10/07 06:49:56;;;;;;;12.73;4.03;;;16.90;99.90;;;;;;6336541;22;44948;-54
2023/10/07 06:52:22;;;;;;;12.18;3.40;;;16.90;99.90;;;;;;6335006;22;45096;-54
2023/10/07 06:54:53;;;;;;;6.57;2.80;;;16.90;99.90;;;;;;6339025;22;45153;-55
2023/10/07 06:57:21;;;;;;;3.60;1.80;;;17.40;99.90;;;;;;6336980;22;45088;-55
2023/10/07 06:59:47;;;;;;;4.30;2.63;;;18.30;99.90;;;;;;6336680;22;48415;-55
2023/10/07 07:02:18;;;;;;;6.03;2.63;;;18.70;99.90;;;;;;6338398;22;45244;-55
2023/10/07 07:04:47;;;;;;;6.70;2.17;;;19.10;99.90;;;;;;6339660;22;45207;-55
2023/10/07 07:07:16;;;;;;;10.82;3.15;;;19.30;99.90;;;;;;6338921;22;45267;-54
2023/10/07 07:09:50;;;;;;;8.68;2.47;;;19.40;99.90;;;;;;6339210;22;45399;-55
2023/10/07 07:12:21;;;;;;;10.18;3.60;;;19.40;99.60;;;;;;6337526;22;45135;-54
2023/10/07 07:14:51;;;;;;;14.02;3.83;;;18.60;99.90;;;;;;6336253;22;44643;-55
2023/10/07 07:20:33;;;;;;;11.50;3.85;;;17.40;99.90;;;;;;6327634;22;45902;-54
2023/10/07 07:23:03;;;;;;;8.60;3.33;;;17.20;99.90;;;;;;6336094;22;45201;-54
2023/10/07 07:25:39;;;;;;;8.55;2.95;;;17.40;99.90;;;;;;6336297;22;45125;-54
2023/10/07 07:28:09;;;;;;;8.18;3.30;;;17.40;99.90;;;;;;6338325;22;45137;-55
2023/10/07 07:30:36;;;;;;;6.07;2.83;;;17.50;99.90;;;;;;6337486;22;45179;-55
2023/10/07 07:33:08;;;;;;;9.05;3.25;;;17.80;99.90;;;;;;6337253;22;44627;-55
2023/10/07 07:35:39;;;;;;;15.73;3.30;;;17.90;99.90;;;;;;6338979;22;45042;-55
2023/10/07 07:38:20;;;;;;;16.48;4.78;;;17.60;99.90;;;;;;6339182;22;45188;-55
2023/10/07 07:40:49;;;;;;;13.65;2.63;;;17.50;99.90;;;;;;6338005;22;46229;-54
2023/10/07 07:43:19;;;;;;;8.75;3.00;;;17.60;99.90;;;;;;6339061;22;45140;-54
2023/10/07 07:45:48;;;;;;;8.18;3.05;;;17.60;99.90;;;;;;6339051;22;45016;-54
2023/10/07 07:48:16;;;;;;;8.07;3.20;;;17.40;99.90;;;;;;6338914;22;44985;-54
2023/10/07 07:50:44;;;;;;;11.85;3.63;;;17.80;99.90;;;;;;6338717;22;45265;-55
2023/10/07 07:53:12;;;;;;;9.43;3.20;;;17.70;99.90;;;;;;6338041;22;45122;-55
2023/10/07 07:55:43;;;;;;;12.65;4.20;;;17.40;99.90;;;;;;6338353;22;45177;-53
2023/10/07 07:58:10;;;;;;;12.88;4.13;;;17.20;99.90;;;;;;6338767;22;45059;-55
2023/10/07 08:00:41;;;;;;;15.48;3.83;;;17.20;99.90;;;;;;6337984;22;47218;-54
2023/10/07 08:03:09;;;;;;;11.02;3.83;;;16.90;99.90;;;;;;6337788;22;45053;-54
2023/10/07 08:05:41;;;;;;;12.18;3.88;;;16.80;99.90;;;;;;6338605;22;45246;-55
2023/10/07 08:08:19;;;;;;;11.00;3.20;;;16.70;99.90;;;;;;6339417;22;45258;-55
2023/10/07 08:10:48;;;;;;;11.32;4.10;;;16.70;99.90;;;;;;6338529;22;45172;-54
2023/10/07 08:13:17;;;;;;;15.32;3.90;;;16.60;99.90;;;;;;6339145;22;45093;-55
2023/10/07 08:15:47;;;;;;;8.30;3.53;;;16.70;99.90;;;;;;6338837;22;44597;-54
2023/10/07 08:18:14;;;;;;;12.25;3.50;;;16.80;99.90;;;;;;6337586;22;45177;-55
2023/10/07 08:20:44;;;;;;;12.43;3.22;;;16.80;99.90;;;;;;6335002;22;45411;-55
2023/10/07 08:23:22;;;;;;;12.25;3.67;;;16.80;99.90;;;;;;6338643;22;45146;-55
2023/10/07 08:25:57;;;;;;;11.15;3.40;;;16.90;99.90;;;;;;6334203;22;45132;-55
2023/10/07 08:28:39;;;;;;;11.82;3.42;;;16.90;99.90;;;;;;6338693;22;45418;-55
2023/10/07 08:31:13;;;;;;;8.50;3.35;;;17.00;99.90;;;;;;6333655;22;45150;-55
2023/10/07 08:33:40;;;;;;;8.85;3.05;;;17.10;99.90;;;;;;6338780;22;45154;-53
2023/10/07 08:36:08;;;;;;;7.50;2.67;;;17.00;99.90;;;;;;6339022;22;45107;-62
2023/10/07 08:38:43;;;;;;;6.78;2.45;;;17.90;99.90;;;;;;6338205;22;45129;-64
2023/10/07 08:41:16;;;;;;;8.18;2.25;;;19.10;99.90;;;;;;6330099;22;45474;-63
2023/10/07 08:43:45;;;;;;;8.00;2.42;;;19.90;99.90;;;;;;6331805;22;45569;-64
2023/10/07 08:46:16;;;;;;;14.10;2.47;;;20.30;99.90;;;;;;6328890;22;45056;-66
2023/10/07 08:48:55;;;;;;;5.30;2.22;;;20.60;99.30;;;;;;6337365;22;45129;-64
2023/10/07 08:51:24;;;;;;;5.45;2.60;;;20.70;98.60;;;;;;6337291;22;45118;-64
2023/10/07 08:53:57;;;;;;;9.45;2.70;;;20.80;98.10;;;;;;6338458;22;45172;-64
2023/10/07 08:56:29;;;;;;;5.50;2.40;;;20.90;97.50;;;;;;6330240;22;45075;-65
2023/10/07 08:58:56;;;;;;;4.70;2.20;;;20.90;97.20;;;;;;6338121;22;45065;-65
2023/10/07 09:01:24;;;;;;;4.85;2.42;;;21.00;96.80;;;;;;6337543;22;45239;-65
2023/10/07 09:03:56;;;;;;;6.50;2.42;;;21.00;96.80;;;;;;6338094;22;45078;-65
2023/10/07 09:06:27;;;;;;;4.30;2.25;;;21.00;96.60;;;;;;6338566;22;45219;-65
2023/10/07 09:09:06;;;;;;;5.38;2.17;;;21.00;96.40;;;;;;6339564;22;45089;-64
2023/10/07 09:11:33;;;;;;;4.38;2.20;;;21.00;96.20;;;;;;6339463;22;46383;-65
2023/10/07 09:14:06;;;;;;;6.57;2.42;;;21.00;96.10;;;;;;6339026;22;44579;-64
2023/10/07 09:16:33;;;;;;;5.05;2.03;;;21.00;95.90;;;;;;6338810;22;45133;-64
2023/10/07 09:19:08;;;;;;;3.13;1.77;;;21.00;95.80;;;;;;6339401;22;45063;-65
2023/10/07 09:21:35;;;;;;;5.15;2.05;;;21.00;95.70;;;;;;6338892;22;46937;-63
2023/10/07 09:24:04;;;;;;;3.90;2.00;;;21.00;95.80;;;;;;6338798;22;45113;-64
2023/10/07 09:26:33;;;;;;;5.82;1.95;;;21.00;95.90;;;;;;6338044;22;45076;-65
2023/10/07 09:29:08;;;;;;;6.10;1.90;;;21.00;95.90;;;;;;6339112;22;45354;-66
2023/10/07 09:31:39;;;;;;;4.03;1.83;;;21.00;95.90;;;;;;6338304;22;46457;-66
2023/10/07 09:34:09;;;;;;;3.45;1.85;;;21.00;95.90;;;;;;6338758;22;45036;-66
2023/10/07 09:36:40;;;;;;;4.05;1.88;;;21.00;95.70;;;;;;6338225;22;45199;-66
2023/10/07 09:42:03;;;;;;;4.53;2.00;;;21.10;95.80;;;;;;6335893;22;45281;-65
2023/10/07 09:44:30;;;;;;;4.10;1.98;;;21.10;95.80;;;;;;6338837;22;45166;-66
2023/10/07 09:47:03;;;;;;;3.50;1.67;;;21.10;95.80;;;;;;6338131;22;45201;-66
2023/10/07 09:49:31;;;;;;;3.50;2.17;;;21.10;95.80;;;;;;6339560;22;45192;-65
2023/10/07 09:52:15;;;;;;;3.20;1.70;;;21.10;95.80;;;;;;6338429;22;46916;-66
2023/10/07 09:54:55;;;;;;;4.97;1.75;;;21.10;95.80;;;;;;6338958;22;45124;-65
2023/10/07 09:57:30;;;;;;;5.05;1.95;;;21.10;95.80;;;;;;6338075;22;45165;-65
2023/10/07 10:03:05;;;;;;;4.72;1.67;;;21.10;95.80;;;;;;6336897;22;46097;-65
2023/10/07 10:05:52;;;;;;;3.08;1.60;;;21.10;96.00;;;;;;6337551;22;45124;-65
2023/10/07 10:08:35;;;;;;;4.38;1.88;;;21.10;95.90;;;;;;6338712;22;44619;-65
2023/10/07 10:11:09;;;;;;;2.55;1.50;;;21.10;96.20;;;;;;6335697;22;45153;-65
2023/10/07 10:16:28;;;;;;;2.63;1.60;;;21.10;96.00;;;;;;6337597;22;45031;-65
2023/10/07 10:19:17;;;;;;;4.82;1.92;;;21.20;96.10;;;;;;6338933;22;45137;-65
2023/10/07 10:21:44;;;;;;;4.30;1.67;;;21.20;96.30;;;;;;6338589;22;45411;-65
2023/10/07 10:24:13;;;;;;;3.67;1.77;;;21.20;96.20;;;;;;6338199;22;46479;-64
2023/10/07 10:26:41;;;;;;;2.47;1.50;;;21.20;96.20;;;;;;6337727;22;45044;-65
2023/10/07 10:29:15;;;;;;;6.10;1.88;;;21.20;96.40;;;;;;6338544;22;45030;-65
2023/10/07 10:31:50;;;;;;;3.38;1.77;;;21.20;96.20;;;;;;6338271;22;45282;-66
2023/10/07 10:34:17;;;;;;;4.65;1.85;;;21.20;96.20;;;;;;6338111;22;45274;-66
2023/10/07 10:36:49;;;;;;;4.40;1.77;;;21.20;96.30;;;;;;6337494;22;45107;-66
2023/10/07 10:39:22;;;;;;;2.63;1.50;;;21.20;96.10;;;;;;6338396;22;45144;-66
2023/10/07 10:41:51;;;;;;;2.58;1.38;;;21.20;96.60;;;;;;6337977;22;45272;-66
2023/10/07 10:44:20;;;;;;;4.95;1.75;;;21.20;96.20;;;;;;6338455;22;45231;-66
2023/10/07 10:46:48;;;;;;;4.85;2.00;;;21.20;96.10;;;;;;6337030;22;45086;-66
2023/10/07 10:49:17;;;;;;;2.67;1.40;;;21.20;96.30;;;;;;6338877;22;45049;-66
2023/10/07 10:51:48;;;;;;;3.13;1.50;;;21.20;96.20;;;;;;6339457;22;45110;-65
2023/10/07 10:54:17;;;;;;;3.78;1.58;;;21.20;96.20;;;;;;6339252;22;45249;-65
2023/10/07 10:56:55;;;;;;;2.70;1.20;;;21.20;96.10;;;;;;6338744;22;44608;-66
2023/10/07 10:59:23;;;;;;;3.45;1.70;;;21.20;96.10;;;;;;6338549;22;44994;-66
2023/10/07 11:01:50;;;;;;;2.65;1.52;;;21.20;96.10;;;;;;6338197;22;44815;-66
2023/10/07 11:04:20;;;;;;;2.33;1.38;;;21.20;96.00;;;;;;6339326;22;45221;-66
2023/10/07 11:06:50;;;;;;;4.05;1.48;;;21.20;96.10;;;;;;6338727;22;45061;-66
2023/10/07 11:09:25;;;;;;;3.42;1.33;;;21.30;96.10;;;;;;6340174;22;45148;-66
2023/10/07 11:11:55;;;;;;;2.25;1.40;;;21.30;96.10;;;;;;6336900;22;45039;-66
2023/10/07 11:14:23;;;;;;;3.42;1.55;;;21.30;96.10;;;;;;6338871;22;47250;-66
2023/10/07 11:16:51;;;;;;;2.78;1.67;;;21.30;96.00;;;;;;6338369;22;45058;-66
2023/10/07 11:19:19;;;;;;;3.42;1.48;;;21.30;96.10;;;;;;6339841;22;45169;-66
2023/10/07 11:21:48;;;;;;;3.05;1.70;;;21.30;96.00;;;;;;6339912;22;44674;-66
2023/10/07 11:24:24;;;;;;;4.95;1.50;;;21.30;96.00;;;;;;6339028;22;47244;-66
2023/10/07 11:26:51;;;;;;;3.17;1.40;;;21.30;96.00;;;;;;6338707;22;45058;-66
2023/10/07 11:29:19;;;;;;;2.50;1.60;;;21.30;96.10;;;;;;6339520;22;44644;-66
2023/10/07 11:31:47;;;;;;;2.88;1.35;;;21.30;96.00;;;;;;6339493;22;45093;-66
2023/10/07 11:34:14;;;;;;;2.75;1.45;;;21.30;96.00;;;;;;6339314;22;45200;-66
2023/10/07 11:36:48;;;;;;;3.95;1.50;;;21.30;96.10;;;;;;6338134;22;45052;-66
2023/10/07 11:39:15;;;;;;;1.63;1.20;;;21.30;96.00;;;;;;6339427;22;45045;-66
2023/10/07 11:41:42;;;;;;;2.00;1.38;;;21.30;96.10;;;;;;6338832;22;45107;-66
2023/10/07 11:44:13;;;;;;;2.45;1.10;;;21.30;96.10;;;;;;6339160;22;45395;-66
2023/10/07 11:46:41;;;;;;;3.65;1.63;;;21.30;96.10;;;;;;6338839;22;45105;-66
2023/10/07 11:49:08;;;;;;;3.03;1.65;;;21.30;96.40;;;;;;6339523;22;44670;-66
2023/10/07 11:51:35;;;;;;;2.17;1.20;;;21.30;96.00;;;;;;6339640;22;45368;-66
2023/10/07 11:54:02;;;;;;;2.60;1.70;;;21.30;95.90;;;;;;6338908;22;46213;-66
2023/10/07 11:56:29;;;;;;;3.35;1.38;;;21.30;96.10;;;;;;6338251;22;45053;-66
2023/10/07 11:58:55;;;;;;;3.08;1.67;;;21.30;96.10;;;;;;6339619;22;45143;-66
2023/10/07 12:01:23;;;;;;;3.22;1.63;;;21.30;96.00;;;;;;6337237;22;45225;-66
2023/10/07 12:03:53;;;;;;;2.92;1.15;;;21.30;96.00;;;;;;6338715;22;46521;-66
2023/10/07 12:06:19;;;;;;;2.92;1.30;;;21.30;96.00;;;;;;6338544;22;44988;-66
2023/10/07 12:08:46;;;;;;;2.60;1.35;;;21.30;96.10;;;;;;6339335;22;45058;-66
2023/10/07 12:11:13;;;;;;;2.05;1.30;;;21.30;96.10;;;;;;6336653;22;45060;-66
2023/10/07 12:13:41;;;;;;;2.95;1.17;;;21.30;96.00;;;;;;6339121;22;46333;-66
2023/10/07 12:16:09;;;;;;;1.92;1.00;;;21.30;96.20;;;;;;6338697;22;45029;-66
2023/10/07 12:18:36;;;;;;;3.15;1.58;;;21.30;96.20;;;;;;6339470;22;45011;-66
2023/10/07 12:21:11;;;;;;;2.95;1.48;;;21.30;96.20;;;;;;6339278;22;45185;-66
2023/10/07 12:23:41;;;;;;;1.63;1.17;;;21.30;96.20;;;;;;6338847;22;46222;-66
2023/10/07 12:26:12;;;;;;;2.47;1.38;;;21.30;96.20;;;;;;6338289;22;45221;-66
2023/10/07 12:28:39;;;;;;;3.30;1.67;;;21.30;96.30;;;;;;6339645;22;45022;-66
2023/10/07 12:31:10;;;;;;;3.38;1.60;;;21.40;96.40;;;;;;6338676;22;45315;-66
2023/10/07 12:33:37;;;;;;;2.58;1.33;;;21.30;96.30;;;;;;6339155;22;46475;-66
2023/10/07 12:36:12;;;;;;;2.30;1.50;;;21.40;96.30;;;;;;6338372;22;45258;-66
2023/10/07 12:38:39;;;;;;;2.22;1.42;;;21.40;96.30;;;;;;6339369;22;45159;-66
2023/10/07 12:41:07;;;;;;;2.17;1.40;;;21.30;96.30;;;;;;6338708;22;45094;-66
2023/10/07 12:43:34;;;;;;;2.90;1.40;;;21.30;96.20;;;;;;6338693;22;45089;-66
2023/10/07 12:46:01;;;;;;;2.22;1.45;;;21.30;96.20;;;;;;6338385;22;45065;-66
2023/10/07 12:48:28;;;;;;;2.90;1.50;;;21.30;96.20;;;;;;6339512;22;44642;-66
2023/10/07 12:50:55;;;;;;;1.98;1.33;;;21.30;96.20;;;;;;6338949;22;45205;-66
2023/10/07 12:53:23;;;;;;;2.78;1.35;;;21.30;96.30;;;;;;6338925;22;45246;-66
2023/10/07 12:55:50;;;;;;;2.38;1.30;;;21.40;96.30;;;;;;6338587;22;45133;-66
2023/10/07 12:58:17;;;;;;;3.75;1.70;;;21.30;96.30;;;;;;6338606;22;45177;-66
2023/10/07 13:00:44;;;;;;;2.05;1.23;;;21.30;96.30;;;;;;6338863;22;45152;-66
2023/10/07 13:03:12;;;;;;;2.42;1.48;;;21.40;96.30;;;;;;6337097;22;45133;-66
2023/10/07 13:05:41;;;;;;;2.63;1.50;;;21.30;96.20;;;;;;6337938;22;44568;-66
2023/10/07 13:08:12;;;;;;;2.47;1.50;;;21.30;96.20;;;;;;6338746;22;45121;-66
2023/10/07 13:10:40;;;;;;;2.67;1.50;;;21.30;96.20;;;;;;6339208;22;45102;-66
2023/10/07 13:13:07;;;;;;;2.95;1.58;;;21.30;96.30;;;;;;6337616;22;46110;-66
2023/10/07 13:15:35;;;;;;;2.75;1.45;;;21.30;96.30;;;;;;6338292;22;45039;-66
2023/10/07 13:18:02;;;;;;;4.00;1.63;;;21.30;96.20;;;;;;6338687;22;45047;-66
2023/10/07 13:20:30;;;;;;;3.35;1.50;;;21.30;96.30;;;;;;6339414;22;45079;-66